Terminal Aerodrome Forecast
Issued by NWS Sioux Falls, SD

Home | Current Version | Previous Version | Text Only | Print | Product List | Glossary Off
Versions: 1 2 3 4 5 6 7 8 9 10 11 12 13 14 15 16 17

000
FTUS43 KFSD 242007 AAC
TAFFSD
TAF AMD
KFSD 242007Z 2420/2518 12012G17KT P6SM SCT045 BKN200
     FM250100 12011KT P6SM OVC022
      TEMPO 2503/2505 5SM -SHRA BKN015
     FM250500 08009KT 6SM BR OVC012
     FM251600 06014KT P6SM OVC022=

USA.gov is the U.S. government's official web portal to all federal, state and local government web resources and services.